sensor_id;sensor_type;location;lat;lon;timestamp;P1;durP1;ratioP1;P2;durP2;ratioP2
2546;SDS011;1283;47.982;7.834;2022-08-19T00:03:03;16.07;;;9.13;;
2546;SDS011;1283;47.982;7.834;2022-08-19T00:05:31;11.98;;;9.45;;
2546;SDS011;1283;47.982;7.834;2022-08-19T00:07:57;11.68;;;9.13;;
2546;SDS011;1283;47.982;7.834;2022-08-19T00:12:50;13.05;;;8.95;;
2546;SDS011;1283;47.982;7.834;2022-08-19T00:15:19;15.55;;;8.55;;
2546;SDS011;1283;47.982;7.834;2022-08-19T00:17:46;14.50;;;9.23;;
2546;SDS011;1283;47.982;7.834;2022-08-19T00:20:16;13.27;;;8.60;;
2546;SDS011;1283;47.982;7.834;2022-08-19T00:22:46;11.25;;;8.43;;
2546;SDS011;1283;47.982;7.834;2022-08-19T00:25:13;11.88;;;7.90;;
2546;SDS011;1283;47.982;7.834;2022-08-19T00:27:40;10.10;;;8.30;;
2546;SDS011;1283;47.982;7.834;2022-08-19T00:30:07;12.13;;;8.57;;
2546;SDS011;1283;47.982;7.834;2022-08-19T00:32:35;12.20;;;8.07;;
2546;SDS011;1283;47.982;7.834;2022-08-19T00:35:01;14.10;;;8.20;;
2546;SDS011;1283;47.982;7.834;2022-08-19T00:37:28;11.85;;;8.43;;
2546;SDS011;1283;47.982;7.834;2022-08-19T00:39:56;11.75;;;8.45;;
2546;SDS011;1283;47.982;7.834;2022-08-19T00:42:22;11.65;;;8.13;;
2546;SDS011;1283;47.982;7.834;2022-08-19T00:44:53;14.30;;;8.75;;
2546;SDS011;1283;47.982;7.834;2022-08-19T00:47:19;14.80;;;9.60;;
2546;SDS011;1283;47.982;7.834;2022-08-19T00:49:47;18.92;;;8.82;;
2546;SDS011;1283;47.982;7.834;2022-08-19T00:52:16;12.15;;;9.05;;
2546;SDS011;1283;47.982;7.834;2022-08-19T00:54:46;14.65;;;9.48;;
2546;SDS011;1283;47.982;7.834;2022-08-19T00:57:17;14.48;;;9.85;;
2546;SDS011;1283;47.982;7.834;2022-08-19T00:59:46;15.88;;;9.88;;
2546;SDS011;1283;47.982;7.834;2022-08-19T01:02:14;17.17;;;9.48;;
2546;SDS011;1283;47.982;7.834;2022-08-19T01:04:41;15.55;;;10.23;;
2546;SDS011;1283;47.982;7.834;2022-08-19T01:07:08;17.27;;;10.40;;
2546;SDS011;1283;47.982;7.834;2022-08-19T01:09:34;14.27;;;10.30;;
2546;SDS011;1283;47.982;7.834;2022-08-19T01:12:00;25.83;;;10.63;;
2546;SDS011;1283;47.982;7.834;2022-08-19T01:14:29;16.17;;;11.85;;
2546;SDS011;1283;47.982;7.834;2022-08-19T01:16:56;18.73;;;11.93;;
2546;SDS011;1283;47.982;7.834;2022-08-19T01:19:27;20.40;;;12.82;;
2546;SDS011;1283;47.982;7.834;2022-08-19T01:21:56;18.08;;;12.32;;
2546;SDS011;1283;47.982;7.834;2022-08-19T01:24:25;16.25;;;10.52;;
2546;SDS011;1283;47.982;7.834;2022-08-19T01:26:52;14.63;;;10.95;;
2546;SDS011;1283;47.982;7.834;2022-08-19T01:29:19;15.95;;;10.93;;
2546;SDS011;1283;47.982;7.834;2022-08-19T01:31:45;15.07;;;10.75;;
2546;SDS011;1283;47.982;7.834;2022-08-19T01:34:12;16.88;;;11.15;;
2546;SDS011;1283;47.982;7.834;2022-08-19T01:36:39;16.42;;;11.57;;
2546;SDS011;1283;47.982;7.834;2022-08-19T01:39:12;20.65;;;10.93;;
2546;SDS011;1283;47.982;7.834;2022-08-19T01:41:41;13.77;;;10.15;;
2546;SDS011;1283;47.982;7.834;2022-08-19T01:44:08;21.02;;;11.20;;
2546;SDS011;1283;47.982;7.834;2022-08-19T01:46:36;13.57;;;10.93;;
2546;SDS011;1283;47.982;7.834;2022-08-19T01:49:02;18.05;;;11.07;;
2546;SDS011;1283;47.982;7.834;2022-08-19T01:51:29;14.30;;;10.50;;
2546;SDS011;1283;47.982;7.834;2022-08-19T01:53:56;14.82;;;10.52;;
2546;SDS011;1283;47.982;7.834;2022-08-19T01:56:23;14.95;;;11.07;;
2546;SDS011;1283;47.982;7.834;2022-08-19T01:58:52;14.63;;;10.55;;
2546;SDS011;1283;47.982;7.834;2022-08-19T02:01:21;15.15;;;10.57;;
2546;SDS011;1283;47.982;7.834;2022-08-19T02:03:47;20.42;;;11.30;;
2546;SDS011;1283;47.982;7.834;2022-08-19T02:08:42;16.15;;;11.93;;
2546;SDS011;1283;47.982;7.834;2022-08-19T02:11:17;15.75;;;11.15;;
2546;SDS011;1283;47.982;7.834;2022-08-19T02:13:44;14.80;;;10.63;;
2546;SDS011;1283;47.982;7.834;2022-08-19T02:16:12;14.77;;;11.02;;
2546;SDS011;1283;47.982;7.834;2022-08-19T02:18:38;14.85;;;10.73;;
2546;SDS011;1283;47.982;7.834;2022-08-19T02:23:31;17.80;;;11.35;;
2546;SDS011;1283;47.982;7.834;2022-08-19T02:25:57;17.45;;;10.77;;
2546;SDS011;1283;47.982;7.834;2022-08-19T02:28:24;16.88;;;11.77;;
2546;SDS011;1283;47.982;7.834;2022-08-19T02:30:51;15.98;;;11.75;;
2546;SDS011;1283;47.982;7.834;2022-08-19T02:33:19;16.85;;;11.90;;
2546;SDS011;1283;47.982;7.834;2022-08-19T02:35:45;18.88;;;11.50;;
2546;SDS011;1283;47.982;7.834;2022-08-19T02:38:12;16.95;;;12.38;;
2546;SDS011;1283;47.982;7.834;2022-08-19T02:40:52;21.55;;;12.30;;
2546;SDS011;1283;47.982;7.834;2022-08-19T02:43:18;20.38;;;12.63;;
2546;SDS011;1283;47.982;7.834;2022-08-19T02:45:46;16.23;;;12.25;;
2546;SDS011;1283;47.982;7.834;2022-08-19T02:48:13;22.83;;;11.02;;
2546;SDS011;1283;47.982;7.834;2022-08-19T02:50:43;18.70;;;12.13;;
2546;SDS011;1283;47.982;7.834;2022-08-19T02:53:10;17.15;;;11.18;;
2546;SDS011;1283;47.982;7.834;2022-08-19T02:55:42;15.98;;;11.00;;
2546;SDS011;1283;47.982;7.834;2022-08-19T02:58:09;19.55;;;10.95;;
2546;SDS011;1283;47.982;7.834;2022-08-19T03:00:35;16.38;;;10.63;;
2546;SDS011;1283;47.982;7.834;2022-08-19T03:03:02;15.35;;;10.85;;
2546;SDS011;1283;47.982;7.834;2022-08-19T03:05:28;15.57;;;11.00;;
2546;SDS011;1283;47.982;7.834;2022-08-19T03:07:56;18.65;;;10.55;;
2546;SDS011;1283;47.982;7.834;2022-08-19T03:10:23;14.07;;;11.32;;
2546;SDS011;1283;47.982;7.834;2022-08-19T03:12:50;19.27;;;11.65;;
2546;SDS011;1283;47.982;7.834;2022-08-19T03:15:16;16.42;;;11.60;;
2546;SDS011;1283;47.982;7.834;2022-08-19T03:17:43;22.77;;;11.80;;
2546;SDS011;1283;47.982;7.834;2022-08-19T03:20:10;18.67;;;12.68;;
2546;SDS011;1283;47.982;7.834;2022-08-19T03:22:36;15.63;;;11.20;;
2546;SDS011;1283;47.982;7.834;2022-08-19T03:25:04;16.33;;;11.45;;
2546;SDS011;1283;47.982;7.834;2022-08-19T03:27:31;20.20;;;12.05;;
2546;SDS011;1283;47.982;7.834;2022-08-19T03:29:57;20.27;;;12.27;;
2546;SDS011;1283;47.982;7.834;2022-08-19T03:32:24;18.05;;;11.88;;
2546;SDS011;1283;47.982;7.834;2022-08-19T03:34:50;19.38;;;12.43;;
2546;SDS011;1283;47.982;7.834;2022-08-19T03:37:17;19.38;;;12.30;;
2546;SDS011;1283;47.982;7.834;2022-08-19T03:39:44;18.08;;;12.98;;
2546;SDS011;1283;47.982;7.834;2022-08-19T03:44:38;16.73;;;12.07;;
2546;SDS011;1283;47.982;7.834;2022-08-19T03:47:04;18.20;;;12.88;;
2546;SDS011;1283;47.982;7.834;2022-08-19T03:49:32;18.40;;;12.30;;
2546;SDS011;1283;47.982;7.834;2022-08-19T03:52:00;21.00;;;11.70;;
2546;SDS011;1283;47.982;7.834;2022-08-19T03:54:27;17.88;;;11.93;;
2546;SDS011;1283;47.982;7.834;2022-08-19T03:56:54;19.75;;;12.88;;
2546;SDS011;1283;47.982;7.834;2022-08-19T03:59:24;18.17;;;13.27;;
2546;SDS011;1283;47.982;7.834;2022-08-19T04:01:51;19.30;;;12.93;;
2546;SDS011;1283;47.982;7.834;2022-08-19T04:04:18;16.50;;;12.10;;
2546;SDS011;1283;47.982;7.834;2022-08-19T04:06:46;19.80;;;14.05;;
2546;SDS011;1283;47.982;7.834;2022-08-19T04:09:13;21.25;;;12.93;;
2546;SDS011;1283;47.982;7.834;2022-08-19T04:11:40;19.55;;;12.63;;
2546;SDS011;1283;47.982;7.834;2022-08-19T04:14:11;20.20;;;12.40;;
2546;SDS011;1283;47.982;7.834;2022-08-19T04:16:40;20.33;;;13.68;;
2546;SDS011;1283;47.982;7.834;2022-08-19T04:19:08;23.23;;;13.07;;
2546;SDS011;1283;47.982;7.834;2022-08-19T04:21:35;23.73;;;13.52;;
2546;SDS011;1283;47.982;7.834;2022-08-19T04:24:02;18.75;;;13.30;;
2546;SDS011;1283;47.982;7.834;2022-08-19T04:26:30;18.73;;;12.48;;
2546;SDS011;1283;47.982;7.834;2022-08-19T04:28:58;21.27;;;13.45;;
2546;SDS011;1283;47.982;7.834;2022-08-19T04:31:26;18.05;;;12.65;;
2546;SDS011;1283;47.982;7.834;2022-08-19T04:33:54;17.80;;;12.88;;
2546;SDS011;1283;47.982;7.834;2022-08-19T04:36:22;18.27;;;11.90;;
2546;SDS011;1283;47.982;7.834;2022-08-19T04:38:52;18.38;;;12.50;;
2546;SDS011;1283;47.982;7.834;2022-08-19T04:41:20;21.55;;;13.43;;
2546;SDS011;1283;47.982;7.834;2022-08-19T04:44:04;23.75;;;13.70;;
2546;SDS011;1283;47.982;7.834;2022-08-19T04:46:31;17.23;;;12.10;;
2546;SDS011;1283;47.982;7.834;2022-08-19T04:48:59;18.00;;;12.98;;
2546;SDS011;1283;47.982;7.834;2022-08-19T04:51:26;19.20;;;13.25;;
2546;SDS011;1283;47.982;7.834;2022-08-19T04:53:55;19.63;;;12.77;;
2546;SDS011;1283;47.982;7.834;2022-08-19T04:56:22;22.63;;;13.52;;
2546;SDS011;1283;47.982;7.834;2022-08-19T04:58:51;20.52;;;13.65;;
2546;SDS011;1283;47.982;7.834;2022-08-19T05:01:18;21.10;;;13.38;;
2546;SDS011;1283;47.982;7.834;2022-08-19T05:03:45;18.35;;;12.90;;
2546;SDS011;1283;47.982;7.834;2022-08-19T05:06:13;17.63;;;12.98;;
2546;SDS011;1283;47.982;7.834;2022-08-19T05:08:41;22.63;;;13.20;;
2546;SDS011;1283;47.982;7.834;2022-08-19T05:11:12;22.65;;;13.23;;
2546;SDS011;1283;47.982;7.834;2022-08-19T05:13:39;18.02;;;12.75;;
2546;SDS011;1283;47.982;7.834;2022-08-19T05:16:07;18.83;;;12.27;;
2546;SDS011;1283;47.982;7.834;2022-08-19T05:18:34;18.83;;;12.43;;
2546;SDS011;1283;47.982;7.834;2022-08-19T05:21:19;17.38;;;12.02;;
2546;SDS011;1283;47.982;7.834;2022-08-19T05:24:05;18.40;;;11.90;;
2546;SDS011;1283;47.982;7.834;2022-08-19T05:26:33;24.88;;;12.90;;
2546;SDS011;1283;47.982;7.834;2022-08-19T05:29:00;20.33;;;13.48;;
2546;SDS011;1283;47.982;7.834;2022-08-19T05:31:26;19.65;;;11.82;;
2546;SDS011;1283;47.982;7.834;2022-08-19T05:33:52;23.52;;;13.07;;
2546;SDS011;1283;47.982;7.834;2022-08-19T05:36:20;17.33;;;12.68;;
2546;SDS011;1283;47.982;7.834;2022-08-19T05:38:48;17.30;;;12.60;;
2546;SDS011;1283;47.982;7.834;2022-08-19T05:41:15;18.83;;;12.65;;
2546;SDS011;1283;47.982;7.834;2022-08-19T05:43:42;21.00;;;11.90;;
2546;SDS011;1283;47.982;7.834;2022-08-19T05:46:08;23.25;;;13.00;;
2546;SDS011;1283;47.982;7.834;2022-08-19T05:48:43;18.63;;;12.05;;
2546;SDS011;1283;47.982;7.834;2022-08-19T05:51:10;18.10;;;12.68;;
2546;SDS011;1283;47.982;7.834;2022-08-19T05:53:37;16.20;;;11.40;;
2546;SDS011;1283;47.982;7.834;2022-08-19T05:56:04;18.02;;;12.48;;
2546;SDS011;1283;47.982;7.834;2022-08-19T05:58:31;19.23;;;11.57;;
2546;SDS011;1283;47.982;7.834;2022-08-19T06:00:58;16.55;;;11.77;;
2546;SDS011;1283;47.982;7.834;2022-08-19T06:03:29;13.57;;;10.75;;
2546;SDS011;1283;47.982;7.834;2022-08-19T06:05:55;18.08;;;11.05;;
2546;SDS011;1283;47.982;7.834;2022-08-19T06:08:23;16.50;;;10.00;;
2546;SDS011;1283;47.982;7.834;2022-08-19T06:10:51;14.45;;;10.82;;
2546;SDS011;1283;47.982;7.834;2022-08-19T06:13:17;15.50;;;10.77;;
2546;SDS011;1283;47.982;7.834;2022-08-19T06:15:44;11.65;;;9.27;;
2546;SDS011;1283;47.982;7.834;2022-08-19T06:18:11;14.32;;;9.45;;
2546;SDS011;1283;47.982;7.834;2022-08-19T06:20:37;15.15;;;9.60;;
2546;SDS011;1283;47.982;7.834;2022-08-19T06:23:04;16.23;;;10.27;;
2546;SDS011;1283;47.982;7.834;2022-08-19T06:25:30;15.75;;;9.45;;
2546;SDS011;1283;47.982;7.834;2022-08-19T06:27:58;12.18;;;9.32;;
2546;SDS011;1283;47.982;7.834;2022-08-19T06:30:24;12.43;;;8.85;;
2546;SDS011;1283;47.982;7.834;2022-08-19T06:32:51;10.90;;;8.68;;
2546;SDS011;1283;47.982;7.834;2022-08-19T06:35:17;13.18;;;9.38;;
2546;SDS011;1283;47.982;7.834;2022-08-19T06:37:44;14.10;;;8.48;;
2546;SDS011;1283;47.982;7.834;2022-08-19T06:40:11;13.02;;;8.25;;
2546;SDS011;1283;47.982;7.834;2022-08-19T06:42:37;14.65;;;8.90;;
2546;SDS011;1283;47.982;7.834;2022-08-19T06:45:06;17.60;;;8.90;;
2546;SDS011;1283;47.982;7.834;2022-08-19T06:47:33;12.05;;;8.43;;
2546;SDS011;1283;47.982;7.834;2022-08-19T06:50:00;15.55;;;8.88;;
2546;SDS011;1283;47.982;7.834;2022-08-19T06:52:27;14.80;;;9.65;;
2546;SDS011;1283;47.982;7.834;2022-08-19T06:54:54;14.82;;;9.15;;
2546;SDS011;1283;47.982;7.834;2022-08-19T06:57:21;12.82;;;8.43;;
2546;SDS011;1283;47.982;7.834;2022-08-19T06:59:47;9.93;;;7.95;;
2546;SDS011;1283;47.982;7.834;2022-08-19T07:02:15;15.95;;;9.02;;
2546;SDS011;1283;47.982;7.834;2022-08-19T07:04:42;11.80;;;8.05;;
2546;SDS011;1283;47.982;7.834;2022-08-19T07:07:09;12.63;;;8.80;;
2546;SDS011;1283;47.982;7.834;2022-08-19T07:09:38;12.98;;;8.98;;
2546;SDS011;1283;47.982;7.834;2022-08-19T07:12:07;13.00;;;9.50;;
2546;SDS011;1283;47.982;7.834;2022-08-19T07:14:35;13.40;;;10.52;;
2546;SDS011;1283;47.982;7.834;2022-08-19T07:17:03;18.40;;;10.05;;
2546;SDS011;1283;47.982;7.834;2022-08-19T07:19:32;12.95;;;9.77;;
2546;SDS011;1283;47.982;7.834;2022-08-19T07:22:00;17.95;;;9.65;;
2546;SDS011;1283;47.982;7.834;2022-08-19T07:24:27;17.73;;;10.32;;
2546;SDS011;1283;47.982;7.834;2022-08-19T07:26:56;18.90;;;11.77;;
2546;SDS011;1283;47.982;7.834;2022-08-19T07:29:25;14.63;;;10.05;;
2546;SDS011;1283;47.982;7.834;2022-08-19T07:31:53;17.17;;;10.07;;
2546;SDS011;1283;47.982;7.834;2022-08-19T07:34:21;18.83;;;10.10;;
2546;SDS011;1283;47.982;7.834;2022-08-19T07:36:49;14.18;;;10.15;;
2546;SDS011;1283;47.982;7.834;2022-08-19T07:39:17;22.42;;;11.30;;
2546;SDS011;1283;47.982;7.834;2022-08-19T07:41:44;15.52;;;10.55;;
2546;SDS011;1283;47.982;7.834;2022-08-19T07:44:12;15.48;;;10.40;;
2546;SDS011;1283;47.982;7.834;2022-08-19T07:46:40;15.15;;;10.43;;
2546;SDS011;1283;47.982;7.834;2022-08-19T07:49:09;16.63;;;11.43;;
2546;SDS011;1283;47.982;7.834;2022-08-19T07:51:39;21.30;;;11.75;;
2546;SDS011;1283;47.982;7.834;2022-08-19T07:54:07;20.55;;;11.77;;
2546;SDS011;1283;47.982;7.834;2022-08-19T07:56:33;18.63;;;11.02;;
2546;SDS011;1283;47.982;7.834;2022-08-19T07:59:00;17.45;;;11.07;;
2546;SDS011;1283;47.982;7.834;2022-08-19T08:01:27;19.42;;;13.30;;
2546;SDS011;1283;47.982;7.834;2022-08-19T08:03:54;24.02;;;13.25;;
2546;SDS011;1283;47.982;7.834;2022-08-19T08:06:40;23.45;;;12.98;;
2546;SDS011;1283;47.982;7.834;2022-08-19T08:09:26;25.38;;;14.15;;
2546;SDS011;1283;47.982;7.834;2022-08-19T08:11:55;22.88;;;13.23;;
2546;SDS011;1283;47.982;7.834;2022-08-19T08:14:24;21.65;;;13.02;;
2546;SDS011;1283;47.982;7.834;2022-08-19T08:16:52;21.85;;;13.02;;
2546;SDS011;1283;47.982;7.834;2022-08-19T08:19:19;19.25;;;13.10;;
2546;SDS011;1283;47.982;7.834;2022-08-19T08:21:48;20.17;;;13.35;;
2546;SDS011;1283;47.982;7.834;2022-08-19T08:24:15;24.23;;;14.77;;
2546;SDS011;1283;47.982;7.834;2022-08-19T08:26:43;23.15;;;14.13;;
2546;SDS011;1283;47.982;7.834;2022-08-19T08:29:10;27.45;;;14.45;;
2546;SDS011;1283;47.982;7.834;2022-08-19T08:31:38;23.25;;;13.88;;
2546;SDS011;1283;47.982;7.834;2022-08-19T08:34:05;20.60;;;14.32;;
2546;SDS011;1283;47.982;7.834;2022-08-19T08:36:32;25.48;;;14.40;;
2546;SDS011;1283;47.982;7.834;2022-08-19T08:38:59;21.63;;;14.13;;
2546;SDS011;1283;47.982;7.834;2022-08-19T08:41:28;23.10;;;14.23;;
2546;SDS011;1283;47.982;7.834;2022-08-19T08:43:59;22.77;;;15.30;;
2546;SDS011;1283;47.982;7.834;2022-08-19T08:46:30;23.23;;;14.52;;
2546;SDS011;1283;47.982;7.834;2022-08-19T08:49:04;24.73;;;15.32;;
2546;SDS011;1283;47.982;7.834;2022-08-19T08:51:37;23.58;;;15.32;;
2546;SDS011;1283;47.982;7.834;2022-08-19T08:54:11;20.77;;;14.55;;
2546;SDS011;1283;47.982;7.834;2022-08-19T08:56:39;24.63;;;15.18;;
2546;SDS011;1283;47.982;7.834;2022-08-19T08:59:12;21.98;;;14.60;;
2546;SDS011;1283;47.982;7.834;2022-08-19T09:01:42;22.88;;;13.35;;
2546;SDS011;1283;47.982;7.834;2022-08-19T09:04:09;21.55;;;14.20;;
2546;SDS011;1283;47.982;7.834;2022-08-19T09:06:38;19.90;;;14.55;;
2546;SDS011;1283;47.982;7.834;2022-08-19T09:09:12;26.67;;;15.68;;
2546;SDS011;1283;47.982;7.834;2022-08-19T09:11:46;25.20;;;16.80;;
2546;SDS011;1283;47.982;7.834;2022-08-19T09:14:20;29.33;;;16.88;;
2546;SDS011;1283;47.982;7.834;2022-08-19T09:16:58;23.50;;;16.83;;
2546;SDS011;1283;47.982;7.834;2022-08-19T09:19:25;27.45;;;17.20;;
2546;SDS011;1283;47.982;7.834;2022-08-19T09:21:52;24.92;;;17.58;;
2546;SDS011;1283;47.982;7.834;2022-08-19T09:24:18;25.55;;;16.65;;
2546;SDS011;1283;47.982;7.834;2022-08-19T09:26:45;25.63;;;16.25;;
2546;SDS011;1283;47.982;7.834;2022-08-19T09:29:11;23.45;;;15.80;;
2546;SDS011;1283;47.982;7.834;2022-08-19T09:31:39;25.70;;;14.93;;
2546;SDS011;1283;47.982;7.834;2022-08-19T09:34:06;26.85;;;16.10;;
2546;SDS011;1283;47.982;7.834;2022-08-19T09:36:33;22.65;;;15.23;;
2546;SDS011;1283;47.982;7.834;2022-08-19T09:39:01;23.25;;;15.60;;
2546;SDS011;1283;47.982;7.834;2022-08-19T09:41:28;20.35;;;14.55;;
2546;SDS011;1283;47.982;7.834;2022-08-19T09:43:55;23.25;;;14.93;;
2546;SDS011;1283;47.982;7.834;2022-08-19T09:46:23;23.83;;;14.75;;
2546;SDS011;1283;47.982;7.834;2022-08-19T09:48:52;20.42;;;15.48;;
2546;SDS011;1283;47.982;7.834;2022-08-19T09:51:20;23.88;;;14.30;;
2546;SDS011;1283;47.982;7.834;2022-08-19T09:53:47;46.33;;;12.60;;
2546;SDS011;1283;47.982;7.834;2022-08-19T09:56:16;26.67;;;15.48;;
2546;SDS011;1283;47.982;7.834;2022-08-19T09:58:43;34.50;;;15.35;;
2546;SDS011;1283;47.982;7.834;2022-08-19T10:01:14;25.05;;;15.15;;
2546;SDS011;1283;47.982;7.834;2022-08-19T10:03:42;37.60;;;14.32;;
2546;SDS011;1283;47.982;7.834;2022-08-19T10:06:10;30.15;;;15.48;;
2546;SDS011;1283;47.982;7.834;2022-08-19T10:08:36;25.98;;;15.07;;
2546;SDS011;1283;47.982;7.834;2022-08-19T10:11:04;94.22;;;17.42;;
2546;SDS011;1283;47.982;7.834;2022-08-19T10:13:31;26.67;;;14.65;;
2546;SDS011;1283;47.982;7.834;2022-08-19T10:16:03;25.33;;;16.20;;
2546;SDS011;1283;47.982;7.834;2022-08-19T10:18:31;23.27;;;14.80;;
2546;SDS011;1283;47.982;7.834;2022-08-19T10:21:02;22.70;;;15.48;;
2546;SDS011;1283;47.982;7.834;2022-08-19T10:23:33;26.15;;;14.73;;
2546;SDS011;1283;47.982;7.834;2022-08-19T10:26:01;21.35;;;14.88;;
2546;SDS011;1283;47.982;7.834;2022-08-19T10:28:28;22.08;;;14.57;;
2546;SDS011;1283;47.982;7.834;2022-08-19T10:30:55;28.25;;;15.20;;
2546;SDS011;1283;47.982;7.834;2022-08-19T10:33:22;24.42;;;15.38;;
2546;SDS011;1283;47.982;7.834;2022-08-19T10:35:49;20.77;;;14.10;;
2546;SDS011;1283;47.982;7.834;2022-08-19T10:38:25;24.35;;;14.50;;
2546;SDS011;1283;47.982;7.834;2022-08-19T10:40:52;23.75;;;15.15;;
2546;SDS011;1283;47.982;7.834;2022-08-19T10:43:19;32.58;;;15.55;;
2546;SDS011;1283;47.982;7.834;2022-08-19T10:45:48;22.75;;;14.70;;
2546;SDS011;1283;47.982;7.834;2022-08-19T10:48:18;24.50;;;15.63;;
2546;SDS011;1283;47.982;7.834;2022-08-19T10:50:45;34.10;;;16.58;;
2546;SDS011;1283;47.982;7.834;2022-08-19T10:53:29;21.63;;;14.93;;
2546;SDS011;1283;47.982;7.834;2022-08-19T10:55:56;23.35;;;15.80;;
2546;SDS011;1283;47.982;7.834;2022-08-19T10:58:40;33.38;;;16.55;;
2546;SDS011;1283;47.982;7.834;2022-08-19T11:01:07;22.85;;;14.80;;
2546;SDS011;1283;47.982;7.834;2022-08-19T11:03:33;22.75;;;15.90;;
2546;SDS011;1283;47.982;7.834;2022-08-19T11:06:00;31.65;;;16.85;;
2546;SDS011;1283;47.982;7.834;2022-08-19T11:08:28;28.35;;;16.25;;
2546;SDS011;1283;47.982;7.834;2022-08-19T11:10:59;23.23;;;14.38;;
2546;SDS011;1283;47.982;7.834;2022-08-19T11:13:26;24.67;;;16.30;;
2546;SDS011;1283;47.982;7.834;2022-08-19T11:15:57;27.90;;;15.20;;
2546;SDS011;1283;47.982;7.834;2022-08-19T11:18:25;29.10;;;13.05;;
2546;SDS011;1283;47.982;7.834;2022-08-19T11:20:52;24.38;;;15.40;;
2546;SDS011;1283;47.982;7.834;2022-08-19T11:23:18;22.10;;;14.38;;
2546;SDS011;1283;47.982;7.834;2022-08-19T11:25:45;22.35;;;14.80;;
2546;SDS011;1283;47.982;7.834;2022-08-19T11:28:13;28.45;;;14.13;;
2546;SDS011;1283;47.982;7.834;2022-08-19T11:30:39;18.95;;;11.60;;
2546;SDS011;1283;47.982;7.834;2022-08-19T11:33:06;21.70;;;14.65;;
2546;SDS011;1283;47.982;7.834;2022-08-19T11:35:32;28.92;;;16.27;;
2546;SDS011;1283;47.982;7.834;2022-08-19T11:37:59;28.63;;;17.15;;
2546;SDS011;1283;47.982;7.834;2022-08-19T11:40:27;34.58;;;18.58;;
2546;SDS011;1283;47.982;7.834;2022-08-19T11:42:54;36.97;;;20.65;;
2546;SDS011;1283;47.982;7.834;2022-08-19T11:45:22;33.85;;;17.92;;
2546;SDS011;1283;47.982;7.834;2022-08-19T11:47:48;29.45;;;17.42;;
2546;SDS011;1283;47.982;7.834;2022-08-19T11:50:15;26.67;;;17.10;;
2546;SDS011;1283;47.982;7.834;2022-08-19T11:52:42;30.20;;;18.70;;
2546;SDS011;1283;47.982;7.834;2022-08-19T11:55:10;29.77;;;16.38;;
2546;SDS011;1283;47.982;7.834;2022-08-19T11:57:36;31.67;;;18.95;;
2546;SDS011;1283;47.982;7.834;2022-08-19T12:00:04;31.17;;;17.65;;
2546;SDS011;1283;47.982;7.834;2022-08-19T12:02:33;29.80;;;17.02;;
2546;SDS011;1283;47.982;7.834;2022-08-19T12:04:59;34.92;;;19.52;;
2546;SDS011;1283;47.982;7.834;2022-08-19T12:07:27;29.17;;;17.52;;
2546;SDS011;1283;47.982;7.834;2022-08-19T12:09:54;27.02;;;15.43;;
2546;SDS011;1283;47.982;7.834;2022-08-19T12:12:20;30.80;;;16.70;;
2546;SDS011;1283;47.982;7.834;2022-08-19T12:14:48;26.83;;;15.77;;
2546;SDS011;1283;47.982;7.834;2022-08-19T12:17:15;29.80;;;17.67;;
2546;SDS011;1283;47.982;7.834;2022-08-19T12:19:44;26.52;;;15.07;;
2546;SDS011;1283;47.982;7.834;2022-08-19T12:22:11;27.67;;;16.98;;
2546;SDS011;1283;47.982;7.834;2022-08-19T12:24:37;30.15;;;16.15;;
2546;SDS011;1283;47.982;7.834;2022-08-19T12:27:04;18.45;;;13.85;;
2546;SDS011;1283;47.982;7.834;2022-08-19T12:29:30;27.42;;;15.50;;
2546;SDS011;1283;47.982;7.834;2022-08-19T12:31:57;22.17;;;14.13;;
2546;SDS011;1283;47.982;7.834;2022-08-19T12:34:26;17.88;;;12.50;;
2546;SDS011;1283;47.982;7.834;2022-08-19T12:36:57;18.00;;;12.70;;
2546;SDS011;1283;47.982;7.834;2022-08-19T12:39:24;16.52;;;12.32;;
2546;SDS011;1283;47.982;7.834;2022-08-19T12:41:50;18.27;;;12.43;;
2546;SDS011;1283;47.982;7.834;2022-08-19T12:44:17;15.93;;;11.07;;
2546;SDS011;1283;47.982;7.834;2022-08-19T12:46:43;21.35;;;13.10;;
2546;SDS011;1283;47.982;7.834;2022-08-19T12:49:10;21.52;;;12.73;;
2546;SDS011;1283;47.982;7.834;2022-08-19T12:51:37;19.23;;;12.40;;
2546;SDS011;1283;47.982;7.834;2022-08-19T12:54:05;17.45;;;11.88;;
2546;SDS011;1283;47.982;7.834;2022-08-19T12:56:31;19.83;;;13.02;;
2546;SDS011;1283;47.982;7.834;2022-08-19T12:59:00;18.02;;;12.48;;
2546;SDS011;1283;47.982;7.834;2022-08-19T13:01:27;18.98;;;13.10;;
2546;SDS011;1283;47.982;7.834;2022-08-19T13:03:57;16.67;;;13.02;;
2546;SDS011;1283;47.982;7.834;2022-08-19T13:06:24;15.45;;;11.77;;
2546;SDS011;1283;47.982;7.834;2022-08-19T13:08:51;24.23;;;12.10;;
2546;SDS011;1283;47.982;7.834;2022-08-19T13:11:20;25.60;;;12.43;;
2546;SDS011;1283;47.982;7.834;2022-08-19T13:13:49;18.63;;;12.02;;
2546;SDS011;1283;47.982;7.834;2022-08-19T13:16:16;21.15;;;14.77;;
2546;SDS011;1283;47.982;7.834;2022-08-19T13:18:44;24.90;;;14.90;;
2546;SDS011;1283;47.982;7.834;2022-08-19T13:21:12;18.52;;;13.30;;
2546;SDS011;1283;47.982;7.834;2022-08-19T13:23:39;24.83;;;14.60;;
2546;SDS011;1283;47.982;7.834;2022-08-19T13:26:06;22.75;;;13.90;;
2546;SDS011;1283;47.982;7.834;2022-08-19T13:28:35;21.23;;;12.55;;
2546;SDS011;1283;47.982;7.834;2022-08-19T13:31:20;22.98;;;13.05;;
2546;SDS011;1283;47.982;7.834;2022-08-19T13:34:05;21.98;;;12.68;;
2546;SDS011;1283;47.982;7.834;2022-08-19T13:36:32;18.50;;;12.00;;
2546;SDS011;1283;47.982;7.834;2022-08-19T13:38:59;15.43;;;10.98;;
2546;SDS011;1283;47.982;7.834;2022-08-19T13:41:26;16.42;;;10.80;;
2546;SDS011;1283;47.982;7.834;2022-08-19T13:43:54;16.13;;;10.70;;
2546;SDS011;1283;47.982;7.834;2022-08-19T13:46:20;14.35;;;10.27;;
2546;SDS011;1283;47.982;7.834;2022-08-19T13:48:47;15.77;;;11.07;;
2546;SDS011;1283;47.982;7.834;2022-08-19T13:51:14;19.05;;;12.30;;
2546;SDS011;1283;47.982;7.834;2022-08-19T13:53:41;12.27;;;10.57;;
2546;SDS011;1283;47.982;7.834;2022-08-19T13:56:09;14.77;;;10.23;;
2546;SDS011;1283;47.982;7.834;2022-08-19T13:58:39;12.30;;;9.05;;
2546;SDS011;1283;47.982;7.834;2022-08-19T14:01:07;11.23;;;8.20;;
2546;SDS011;1283;47.982;7.834;2022-08-19T14:03:34;12.75;;;9.45;;
2546;SDS011;1283;47.982;7.834;2022-08-19T14:06:01;11.73;;;8.95;;
2546;SDS011;1283;47.982;7.834;2022-08-19T14:08:28;11.05;;;9.02;;
2546;SDS011;1283;47.982;7.834;2022-08-19T14:10:57;10.13;;;9.02;;
2546;SDS011;1283;47.982;7.834;2022-08-19T14:13:23;14.20;;;8.90;;
2546;SDS011;1283;47.982;7.834;2022-08-19T14:15:51;12.98;;;8.70;;
2546;SDS011;1283;47.982;7.834;2022-08-19T14:18:19;9.30;;;7.88;;
2546;SDS011;1283;47.982;7.834;2022-08-19T14:20:45;15.32;;;9.20;;
2546;SDS011;1283;47.982;7.834;2022-08-19T14:23:12;12.40;;;8.05;;
2546;SDS011;1283;47.982;7.834;2022-08-19T14:25:38;12.30;;;9.10;;
2546;SDS011;1283;47.982;7.834;2022-08-19T14:28:05;15.20;;;9.60;;
2546;SDS011;1283;47.982;7.834;2022-08-19T14:30:33;13.23;;;8.85;;
2546;SDS011;1283;47.982;7.834;2022-08-19T14:33:03;13.50;;;9.93;;
2546;SDS011;1283;47.982;7.834;2022-08-19T14:35:32;13.63;;;9.35;;
2546;SDS011;1283;47.982;7.834;2022-08-19T14:37:59;16.95;;;11.18;;
2546;SDS011;1283;47.982;7.834;2022-08-19T14:40:27;16.25;;;10.07;;
2546;SDS011;1283;47.982;7.834;2022-08-19T14:42:55;15.55;;;12.32;;
2546;SDS011;1283;47.982;7.834;2022-08-19T14:45:24;17.85;;;12.23;;
2546;SDS011;1283;47.982;7.834;2022-08-19T14:47:51;19.25;;;12.88;;
2546;SDS011;1283;47.982;7.834;2022-08-19T14:50:17;16.25;;;12.48;;
2546;SDS011;1283;47.982;7.834;2022-08-19T14:52:46;17.33;;;12.18;;
2546;SDS011;1283;47.982;7.834;2022-08-19T14:55:13;22.05;;;12.70;;
2546;SDS011;1283;47.982;7.834;2022-08-19T14:57:40;19.05;;;13.55;;
2546;SDS011;1283;47.982;7.834;2022-08-19T15:00:07;18.83;;;12.95;;
2546;SDS011;1283;47.982;7.834;2022-08-19T15:02:36;23.27;;;14.20;;
2546;SDS011;1283;47.982;7.834;2022-08-19T15:05:03;22.40;;;14.60;;
2546;SDS011;1283;47.982;7.834;2022-08-19T15:07:30;19.83;;;14.27;;